sensor_id;sensor_type;location;lat;lon;timestamp;pressure;altitude;pressure_sealevel;temperature;humidity
18755;BME280;35061;47.664;9.166;2023-05-07T00:00:28;101426.02;;;14.69;77.73
18755;BME280;35061;47.664;9.166;2023-05-07T00:02:56;101422.85;;;14.67;77.81
18755;BME280;35061;47.664;9.166;2023-05-07T00:05:24;101420.70;;;14.61;77.99
18755;BME280;35061;47.664;9.166;2023-05-07T00:07:52;101426.45;;;14.61;78.15
18755;BME280;35061;47.664;9.166;2023-05-07T00:10:20;101427.46;;;14.58;78.15
18755;BME280;35061;47.664;9.166;2023-05-07T00:12:48;101424.33;;;14.56;78.29
18755;BME280;35061;47.664;9.166;2023-05-07T00:15:16;101426.13;;;14.54;78.31
18755;BME280;35061;47.664;9.166;2023-05-07T00:17:44;101432.37;;;14.52;78.40
18755;BME280;35061;47.664;9.166;2023-05-07T00:20:12;101423.93;;;14.48;78.48
18755;BME280;35061;47.664;9.166;2023-05-07T00:22:40;101433.91;;;14.47;78.62
18755;BME280;35061;47.664;9.166;2023-05-07T00:25:08;101432.04;;;14.44;78.72
18755;BME280;35061;47.664;9.166;2023-05-07T00:27:36;101438.29;;;14.43;78.84
18755;BME280;35061;47.664;9.166;2023-05-07T00:30:04;101435.12;;;14.41;79.10
18755;BME280;35061;47.664;9.166;2023-05-07T00:32:32;101426.19;;;14.38;79.29
18755;BME280;35061;47.664;9.166;2023-05-07T00:35:00;101421.22;;;14.39;79.47
18755;BME280;35061;47.664;9.166;2023-05-07T00:37:28;101414.68;;;14.38;79.66
18755;BME280;35061;47.664;9.166;2023-05-07T00:39:56;101416.48;;;14.36;79.85
18755;BME280;35061;47.664;9.166;2023-05-07T00:42:24;101409.12;;;14.35;80.07
18755;BME280;35061;47.664;9.166;2023-05-07T00:44:52;101408.37;;;14.34;80.24
18755;BME280;35061;47.664;9.166;2023-05-07T00:47:20;101407.55;;;14.34;80.50
18755;BME280;35061;47.664;9.166;2023-05-07T00:49:48;101408.86;;;14.33;80.59
18755;BME280;35061;47.664;9.166;2023-05-07T00:52:17;101405.16;;;14.32;80.79
18755;BME280;35061;47.664;9.166;2023-05-07T00:54:47;101399.12;;;14.30;80.92
18755;BME280;35061;47.664;9.166;2023-05-07T00:57:15;101403.30;;;14.29;81.09
18755;BME280;35061;47.664;9.166;2023-05-07T00:59:43;101413.24;;;14.28;81.43
18755;BME280;35061;47.664;9.166;2023-05-07T01:02:11;101403.04;;;14.27;81.55
18755;BME280;35061;47.664;9.166;2023-05-07T01:04:40;101407.23;;;14.26;81.70
18755;BME280;35061;47.664;9.166;2023-05-07T01:07:08;101405.91;;;14.27;81.74
18755;BME280;35061;47.664;9.166;2023-05-07T01:09:37;101410.10;;;14.26;81.81
18755;BME280;35061;47.664;9.166;2023-05-07T01:12:06;101409.80;;;14.24;81.86
18755;BME280;35061;47.664;9.166;2023-05-07T01:14:34;101410.30;;;14.22;81.98
18755;BME280;35061;47.664;9.166;2023-05-07T01:17:02;101413.66;;;14.21;82.04
18755;BME280;35061;47.664;9.166;2023-05-07T01:19:30;101408.43;;;14.19;82.11
18755;BME280;35061;47.664;9.166;2023-05-07T01:22:07;101410.04;;;14.20;82.21
18755;BME280;35061;47.664;9.166;2023-05-07T01:24:36;101405.26;;;14.17;82.39
18755;BME280;35061;47.664;9.166;2023-05-07T01:27:05;101403.66;;;14.16;82.38
18755;BME280;35061;47.664;9.166;2023-05-07T01:29:33;101404.97;;;14.15;82.40
18755;BME280;35061;47.664;9.166;2023-05-07T01:32:01;101403.92;;;14.13;82.67
18755;BME280;35061;47.664;9.166;2023-05-07T01:34:32;101409.38;;;14.10;82.80
18755;BME280;35061;47.664;9.166;2023-05-07T01:37:02;101417.23;;;14.10;82.96
18755;BME280;35061;47.664;9.166;2023-05-07T01:39:31;101404.64;;;14.07;82.90
18755;BME280;35061;47.664;9.166;2023-05-07T01:41:59;101404.34;;;14.05;82.91
18755;BME280;35061;47.664;9.166;2023-05-07T01:44:28;101407.71;;;14.04;83.02
18755;BME280;35061;47.664;9.166;2023-05-07T01:46:57;101413.99;;;14.02;83.14
18755;BME280;35061;47.664;9.166;2023-05-07T01:49:25;101425.21;;;14.00;83.31
18755;BME280;35061;47.664;9.166;2023-05-07T01:51:53;101416.28;;;13.98;83.34
18755;BME280;35061;47.664;9.166;2023-05-07T01:54:26;101414.71;;;13.97;83.42
18755;BME280;35061;47.664;9.166;2023-05-07T01:56:56;101401.60;;;13.96;83.61
18755;BME280;35061;47.664;9.166;2023-05-07T01:59:24;101404.21;;;13.94;83.53
18755;BME280;35061;47.664;9.166;2023-05-07T02:01:52;101396.04;;;13.92;83.72
18755;BME280;35061;47.664;9.166;2023-05-07T02:04:20;101397.35;;;13.91;83.72
18755;BME280;35061;47.664;9.166;2023-05-07T02:06:48;101408.07;;;13.91;83.94
18755;BME280;35061;47.664;9.166;2023-05-07T02:09:16;101408.79;;;13.86;84.19
18755;BME280;35061;47.664;9.166;2023-05-07T02:11:44;101414.55;;;13.86;84.14
18755;BME280;35061;47.664;9.166;2023-05-07T02:14:12;101404.05;;;13.82;84.22
18755;BME280;35061;47.664;9.166;2023-05-07T02:16:41;101403.73;;;13.80;84.25
18755;BME280;35061;47.664;9.166;2023-05-07T02:19:09;101400.09;;;13.80;84.30
18755;BME280;35061;47.664;9.166;2023-05-07T02:21:37;101407.91;;;13.79;84.51
18755;BME280;35061;47.664;9.166;2023-05-07T02:24:05;101410.00;;;13.79;84.67
18755;BME280;35061;47.664;9.166;2023-05-07T02:26:33;101406.05;;;13.76;84.64
18755;BME280;35061;47.664;9.166;2023-05-07T02:29:01;101412.81;;;13.73;84.76
18755;BME280;35061;47.664;9.166;2023-05-07T02:31:30;101410.43;;;13.72;84.86
18755;BME280;35061;47.664;9.166;2023-05-07T02:33:58;101411.73;;;13.71;85.00
18755;BME280;35061;47.664;9.166;2023-05-07T02:36:25;101413.50;;;13.68;85.06
18755;BME280;35061;47.664;9.166;2023-05-07T02:38:54;101414.02;;;13.66;85.16
18755;BME280;35061;47.664;9.166;2023-05-07T02:41:22;101403.49;;;13.63;85.36
18755;BME280;35061;47.664;9.166;2023-05-07T02:43:50;101406.90;;;13.62;85.35
18755;BME280;35061;47.664;9.166;2023-05-07T02:46:18;101410.27;;;13.60;85.47
18755;BME280;35061;47.664;9.166;2023-05-07T02:48:46;101407.62;;;13.57;85.54
18755;BME280;35061;47.664;9.166;2023-05-07T02:51:14;101407.02;;;13.52;85.69
18755;BME280;35061;47.664;9.166;2023-05-07T02:53:42;101406.73;;;13.50;85.77
18755;BME280;35061;47.664;9.166;2023-05-07T02:56:10;101426.55;;;13.48;85.95
18755;BME280;35061;47.664;9.166;2023-05-07T02:58:38;101423.93;;;13.45;86.03
18755;BME280;35061;47.664;9.166;2023-05-07T03:01:09;101420.92;;;13.39;86.18
18755;BME280;35061;47.664;9.166;2023-05-07T03:03:37;101422.73;;;13.36;86.23
18755;BME280;35061;47.664;9.166;2023-05-07T03:06:06;101417.95;;;13.33;86.42
18755;BME280;35061;47.664;9.166;2023-05-07T03:08:34;101425.50;;;13.31;86.49
18755;BME280;35061;47.664;9.166;2023-05-07T03:11:02;101428.58;;;13.27;86.58
18755;BME280;35061;47.664;9.166;2023-05-07T03:13:30;101437.70;;;13.25;86.82
18755;BME280;35061;47.664;9.166;2023-05-07T03:15:58;101433.74;;;13.23;86.97
18755;BME280;35061;47.664;9.166;2023-05-07T03:18:26;101427.20;;;13.22;87.15
18755;BME280;35061;47.664;9.166;2023-05-07T03:20:54;101421.64;;;13.19;87.31
18755;BME280;35061;47.664;9.166;2023-05-07T03:23:22;101416.09;;;13.15;87.36
18755;BME280;35061;47.664;9.166;2023-05-07T03:25:50;101428.87;;;13.14;87.49
18755;BME280;35061;47.664;9.166;2023-05-07T03:28:18;101428.28;;;13.10;87.44
18755;BME280;35061;47.664;9.166;2023-05-07T03:30:47;101423.21;;;13.05;87.64
18755;BME280;35061;47.664;9.166;2023-05-07T03:33:14;101428.67;;;13.03;87.66
18755;BME280;35061;47.664;9.166;2023-05-07T03:35:43;101428.58;;;12.97;87.71
18755;BME280;35061;47.664;9.166;2023-05-07T03:38:11;101425.90;;;12.93;87.88
18755;BME280;35061;47.664;9.166;2023-05-07T03:40:39;101425.80;;;12.88;88.20
18755;BME280;35061;47.664;9.166;2023-05-07T03:43:07;101421.55;;;12.83;88.19
18755;BME280;35061;47.664;9.166;2023-05-07T03:45:35;101429.59;;;12.79;88.29
18755;BME280;35061;47.664;9.166;2023-05-07T03:48:03;101434.76;;;12.75;88.76
18755;BME280;35061;47.664;9.166;2023-05-07T03:50:31;101432.08;;;12.71;88.80
18755;BME280;35061;47.664;9.166;2023-05-07T03:52:59;101435.41;;;12.69;88.73
18755;BME280;35061;47.664;9.166;2023-05-07T03:55:27;101440.05;;;12.67;88.84
18755;BME280;35061;47.664;9.166;2023-05-07T03:57:55;101437.37;;;12.63;88.96
18755;BME280;35061;47.664;9.166;2023-05-07T04:00:24;101442.05;;;12.61;88.98
18755;BME280;35061;47.664;9.166;2023-05-07T04:02:52;101437.08;;;12.61;89.12
18755;BME280;35061;47.664;9.166;2023-05-07T04:05:20;101443.81;;;12.58;89.23
18755;BME280;35061;47.664;9.166;2023-05-07T04:07:48;101443.03;;;12.57;89.24
18755;BME280;35061;47.664;9.166;2023-05-07T04:10:16;101444.01;;;12.54;89.53
18755;BME280;35061;47.664;9.166;2023-05-07T04:12:43;101446.59;;;12.52;89.80
18755;BME280;35061;47.664;9.166;2023-05-07T04:15:11;101447.38;;;12.53;89.95
18755;BME280;35061;47.664;9.166;2023-05-07T04:17:39;101447.38;;;12.53;89.94
18755;BME280;35061;47.664;9.166;2023-05-07T04:20:10;101444.01;;;12.54;90.09
18755;BME280;35061;47.664;9.166;2023-05-07T04:22:38;101444.83;;;12.55;90.32
18755;BME280;35061;47.664;9.166;2023-05-07T04:25:07;101443.23;;;12.54;90.21
18755;BME280;35061;47.664;9.166;2023-05-07T04:27:36;101448.98;;;12.54;90.28
18755;BME280;35061;47.664;9.166;2023-05-07T04:30:06;101450.59;;;12.55;90.43
18755;BME280;35061;47.664;9.166;2023-05-07T04:32:34;101451.86;;;12.54;90.88
18755;BME280;35061;47.664;9.166;2023-05-07T04:35:04;101450.87;;;12.57;91.07
18755;BME280;35061;47.664;9.166;2023-05-07T04:37:32;101447.80;;;12.61;91.11
18755;BME280;35061;47.664;9.166;2023-05-07T04:40:00;101445.52;;;12.65;91.26
18755;BME280;35061;47.664;9.166;2023-05-07T04:42:28;101445.61;;;12.70;91.28
18755;BME280;35061;47.664;9.166;2023-05-07T04:44:56;101442.57;;;12.74;91.25
18755;BME280;35061;47.664;9.166;2023-05-07T04:47:24;101448.59;;;12.76;91.30
18755;BME280;35061;47.664;9.166;2023-05-07T04:49:52;101452.77;;;12.75;91.39
18755;BME280;35061;47.664;9.166;2023-05-07T04:52:20;101456.44;;;12.76;91.82
18755;BME280;35061;47.664;9.166;2023-05-07T04:54:47;101448.59;;;12.76;91.65
18755;BME280;35061;47.664;9.166;2023-05-07T04:57:15;101447.84;;;12.76;91.49
18755;BME280;35061;47.664;9.166;2023-05-07T04:59:45;101465.66;;;12.80;91.68
18755;BME280;35061;47.664;9.166;2023-05-07T05:02:14;101455.75;;;12.81;91.65
18755;BME280;35061;47.664;9.166;2023-05-07T05:04:45;101458.43;;;12.84;91.61
18755;BME280;35061;47.664;9.166;2023-05-07T05:07:14;101469.74;;;12.88;91.56
18755;BME280;35061;47.664;9.166;2023-05-07T05:09:41;101476.05;;;12.92;91.51
18755;BME280;35061;47.664;9.166;2023-05-07T05:12:09;101478.74;;;12.96;91.45
18755;BME280;35061;47.664;9.166;2023-05-07T05:14:37;101475.70;;;13.00;91.42
18755;BME280;35061;47.664;9.166;2023-05-07T05:17:05;101482.30;;;13.06;91.39
18755;BME280;35061;47.664;9.166;2023-05-07T05:19:33;101483.71;;;13.10;91.41
18755;BME280;35061;47.664;9.166;2023-05-07T05:22:01;101487.50;;;13.17;91.34
18755;BME280;35061;47.664;9.166;2023-05-07T05:24:31;101495.61;;;13.18;91.50
18755;BME280;35061;47.664;9.166;2023-05-07T05:26:59;101503.55;;;13.23;91.44
18755;BME280;35061;47.664;9.166;2023-05-07T05:29:29;101495.55;;;13.28;91.35
18755;BME280;35061;47.664;9.166;2023-05-07T05:31:57;101499.77;;;13.32;91.49
18755;BME280;35061;47.664;9.166;2023-05-07T05:34:25;101496.69;;;13.36;91.38
18755;BME280;35061;47.664;9.166;2023-05-07T05:36:53;101494.73;;;13.42;91.70
18755;BME280;35061;47.664;9.166;2023-05-07T05:39:21;101492.96;;;13.45;91.96
18755;BME280;35061;47.664;9.166;2023-05-07T05:41:50;101490.97;;;13.51;92.06
18755;BME280;35061;47.664;9.166;2023-05-07T05:44:18;101492.34;;;13.56;92.15
18755;BME280;35061;47.664;9.166;2023-05-07T05:46:46;101495.02;;;13.59;92.73
18755;BME280;35061;47.664;9.166;2023-05-07T05:49:14;101499.27;;;13.64;93.24
18755;BME280;35061;47.664;9.166;2023-05-07T05:51:43;101502.74;;;13.68;93.37
18755;BME280;35061;47.664;9.166;2023-05-07T05:54:11;101500.16;;;13.70;93.56
18755;BME280;35061;47.664;9.166;2023-05-07T05:56:39;101503.91;;;13.76;93.46
18755;BME280;35061;47.664;9.166;2023-05-07T05:59:07;101495.64;;;13.84;93.10
18755;BME280;35061;47.664;9.166;2023-05-07T06:01:35;101494.44;;;13.91;93.04
18755;BME280;35061;47.664;9.166;2023-05-07T06:04:04;101492.24;;;14.01;92.77
18755;BME280;35061;47.664;9.166;2023-05-07T06:06:32;101496.20;;;14.03;92.79
18755;BME280;35061;47.664;9.166;2023-05-07T06:09:00;101493.91;;;14.07;92.77
18755;BME280;35061;47.664;9.166;2023-05-07T06:11:28;101493.20;;;14.13;92.44
18755;BME280;35061;47.664;9.166;2023-05-07T06:13:56;101501.40;;;14.20;92.65
18755;BME280;35061;47.664;9.166;2023-05-07T06:16:24;101493.35;;;14.24;92.43
18755;BME280;35061;47.664;9.166;2023-05-07T06:18:52;101506.30;;;14.34;92.32
18755;BME280;35061;47.664;9.166;2023-05-07T06:21:20;101492.77;;;14.41;92.15
18755;BME280;35061;47.664;9.166;2023-05-07T06:23:48;101495.22;;;14.48;91.98
18755;BME280;35061;47.664;9.166;2023-05-07T06:26:16;101499.47;;;14.52;91.81
18755;BME280;35061;47.664;9.166;2023-05-07T06:28:44;101503.49;;;14.61;91.68
18755;BME280;35061;47.664;9.166;2023-05-07T06:33:40;101510.69;;;14.71;91.19
18755;BME280;35061;47.664;9.166;2023-05-07T06:36:08;101513.43;;;14.81;90.95
18755;BME280;35061;47.664;9.166;2023-05-07T06:38:36;101514.28;;;14.87;90.78
18755;BME280;35061;47.664;9.166;2023-05-07T06:41:06;101527.46;;;14.93;90.45
18755;BME280;35061;47.664;9.166;2023-05-07T06:43:34;101529.91;;;15.01;89.99
18755;BME280;35061;47.664;9.166;2023-05-07T06:46:03;101525.27;;;15.09;89.75
18755;BME280;35061;47.664;9.166;2023-05-07T06:48:31;101528.21;;;15.15;89.40
18755;BME280;35061;47.664;9.166;2023-05-07T06:50:59;101527.46;;;15.20;88.70
18755;BME280;35061;47.664;9.166;2023-05-07T06:53:27;101533.84;;;15.24;88.62
18755;BME280;35061;47.664;9.166;2023-05-07T06:55:56;101537.27;;;15.28;88.65
18755;BME280;35061;47.664;9.166;2023-05-07T06:58:24;101533.12;;;15.35;88.94
18755;BME280;35061;47.664;9.166;2023-05-07T07:00:52;101538.16;;;15.40;88.79
18755;BME280;35061;47.664;9.166;2023-05-07T07:03:20;101538.22;;;15.46;88.45
18755;BME280;35061;47.664;9.166;2023-05-07T07:05:52;101536.95;;;15.53;88.19
18755;BME280;35061;47.664;9.166;2023-05-07T07:08:20;101540.90;;;15.55;87.78
18755;BME280;35061;47.664;9.166;2023-05-07T07:10:49;101530.96;;;15.56;87.23
18755;BME280;35061;47.664;9.166;2023-05-07T07:13:17;101528.84;;;15.57;86.40
18755;BME280;35061;47.664;9.166;2023-05-07T07:15:45;101537.50;;;15.57;86.18
18755;BME280;35061;47.664;9.166;2023-05-07T07:18:13;101536.75;;;15.56;85.39
18755;BME280;35061;47.664;9.166;2023-05-07T07:20:41;101534.59;;;15.51;84.85
18755;BME280;35061;47.664;9.166;2023-05-07T07:23:09;101531.42;;;15.49;84.09
18755;BME280;35061;47.664;9.166;2023-05-07T07:25:37;101542.70;;;15.47;83.85
18755;BME280;35061;47.664;9.166;2023-05-07T07:28:05;101541.88;;;15.46;83.60
18755;BME280;35061;47.664;9.166;2023-05-07T07:30:33;101546.55;;;15.44;83.08
18755;BME280;35061;47.664;9.166;2023-05-07T07:33:01;101542.14;;;15.48;83.13
18755;BME280;35061;47.664;9.166;2023-05-07T07:35:33;101540.61;;;15.53;82.81
18755;BME280;35061;47.664;9.166;2023-05-07T07:38:01;101542.50;;;15.56;81.64
18755;BME280;35061;47.664;9.166;2023-05-07T07:40:29;101539.37;;;15.60;81.63
18755;BME280;35061;47.664;9.166;2023-05-07T07:42:57;101542.30;;;15.66;81.62
18755;BME280;35061;47.664;9.166;2023-05-07T07:45:26;101545.77;;;15.70;81.00
18755;BME280;35061;47.664;9.166;2023-05-07T07:47:54;101545.80;;;15.75;81.16
18755;BME280;35061;47.664;9.166;2023-05-07T07:50:22;101542.70;;;15.79;80.58
18755;BME280;35061;47.664;9.166;2023-05-07T07:53:10;101541.42;;;15.86;80.19
18755;BME280;35061;47.664;9.166;2023-05-07T07:55:39;101542.02;;;15.96;79.84
18755;BME280;35061;47.664;9.166;2023-05-07T07:58:07;101551.79;;;16.04;79.62
18755;BME280;35061;47.664;9.166;2023-05-07T08:00:36;101545.31;;;16.15;79.57
18755;BME280;35061;47.664;9.166;2023-05-07T08:03:04;101542.99;;;16.25;79.14
18755;BME280;35061;47.664;9.166;2023-05-07T08:05:33;101540.67;;;16.35;78.50
18755;BME280;35061;47.664;9.166;2023-05-07T08:08:01;101544.43;;;16.46;78.69
18755;BME280;35061;47.664;9.166;2023-05-07T08:10:29;101548.42;;;16.60;78.85
18755;BME280;35061;47.664;9.166;2023-05-07T08:12:58;101545.09;;;16.73;78.33
18755;BME280;35061;47.664;9.166;2023-05-07T08:15:27;101550.91;;;16.85;77.86
18755;BME280;35061;47.664;9.166;2023-05-07T08:17:55;101549.08;;;16.99;77.93
18755;BME280;35061;47.664;9.166;2023-05-07T08:20:25;101555.45;;;17.09;77.97
18755;BME280;35061;47.664;9.166;2023-05-07T08:22:53;101545.74;;;17.18;77.23
18755;BME280;35061;47.664;9.166;2023-05-07T08:25:21;101546.82;;;17.26;77.01
18755;BME280;35061;47.664;9.166;2023-05-07T08:27:49;101543.42;;;17.33;76.01
18755;BME280;35061;47.664;9.166;2023-05-07T08:30:17;101549.47;;;17.41;75.69
18755;BME280;35061;47.664;9.166;2023-05-07T08:32:45;101550.52;;;17.49;75.54
18755;BME280;35061;47.664;9.166;2023-05-07T08:35:13;101558.16;;;17.58;74.92
18755;BME280;35061;47.664;9.166;2023-05-07T08:37:41;101552.12;;;17.67;74.79
18755;BME280;35061;47.664;9.166;2023-05-07T08:40:09;101557.38;;;17.80;74.35
18755;BME280;35061;47.664;9.166;2023-05-07T08:42:40;101556.30;;;17.89;73.25
18755;BME280;35061;47.664;9.166;2023-05-07T08:45:09;101556.27;;;18.00;73.27
18755;BME280;35061;47.664;9.166;2023-05-07T08:47:46;101548.42;;;18.07;72.23
18755;BME280;35061;47.664;9.166;2023-05-07T08:50:15;101543.65;;;18.15;72.53
18755;BME280;35061;47.664;9.166;2023-05-07T08:52:43;101545.48;;;18.24;72.66
18755;BME280;35061;47.664;9.166;2023-05-07T08:55:12;101549.70;;;18.29;71.43
18755;BME280;35061;47.664;9.166;2023-05-07T08:57:40;101544.11;;;18.36;72.16
18755;BME280;35061;47.664;9.166;2023-05-07T09:00:08;101544.86;;;18.42;71.23
18755;BME280;35061;47.664;9.166;2023-05-07T09:02:37;101545.64;;;18.54;71.38
18755;BME280;35061;47.664;9.166;2023-05-07T09:05:06;101544.27;;;18.67;71.40
18755;BME280;35061;47.664;9.166;2023-05-07T09:07:34;101542.87;;;18.79;70.89
18755;BME280;35061;47.664;9.166;2023-05-07T09:10:03;101539.43;;;18.87;70.29
18755;BME280;35061;47.664;9.166;2023-05-07T09:12:32;101538.02;;;18.99;70.29
18755;BME280;35061;47.664;9.166;2023-05-07T09:15:00;101536.06;;;19.24;70.75
18755;BME280;35061;47.664;9.166;2023-05-07T09:17:29;101531.84;;;19.20;66.04
18755;BME280;35061;47.664;9.166;2023-05-07T09:20:05;101533.74;;;19.11;65.35
18755;BME280;35061;47.664;9.166;2023-05-07T09:22:37;101528.80;;;19.06;66.32
18755;BME280;35061;47.664;9.166;2023-05-07T09:25:06;101534.07;;;19.08;66.56
18755;BME280;35061;47.664;9.166;2023-05-07T09:27:35;101531.98;;;19.03;64.42
18755;BME280;35061;47.664;9.166;2023-05-07T09:30:07;101540.38;;;19.06;64.85
18755;BME280;35061;47.664;9.166;2023-05-07T09:32:36;101538.77;;;19.11;65.46
18755;BME280;35061;47.664;9.166;2023-05-07T09:35:06;101530.24;;;19.24;65.67
18755;BME280;35061;47.664;9.166;2023-05-07T09:37:42;101532.34;;;19.30;65.47
18755;BME280;35061;47.664;9.166;2023-05-07T09:40:20;101532.50;;;19.43;65.64
18755;BME280;35061;47.664;9.166;2023-05-07T09:42:50;101531.06;;;19.56;65.33
18755;BME280;35061;47.664;9.166;2023-05-07T09:45:28;101531.52;;;19.65;65.60
18755;BME280;35061;47.664;9.166;2023-05-07T09:47:57;101529.29;;;19.77;65.18
18755;BME280;35061;47.664;9.166;2023-05-07T09:50:28;101524.16;;;19.89;65.18
18755;BME280;35061;47.664;9.166;2023-05-07T09:52:57;101532.79;;;20.01;65.18
18755;BME280;35061;47.664;9.166;2023-05-07T09:55:25;101530.57;;;20.13;65.21
18755;BME280;35061;47.664;9.166;2023-05-07T09:57:53;101526.74;;;20.24;65.27
18755;BME280;35061;47.664;9.166;2023-05-07T10:00:23;101534.07;;;20.30;65.35
18755;BME280;35061;47.664;9.166;2023-05-07T10:02:56;101524.71;;;20.38;65.54
18755;BME280;35061;47.664;9.166;2023-05-07T10:05:25;101529.13;;;20.44;65.29
18755;BME280;35061;47.664;9.166;2023-05-07T10:07:53;101520.04;;;20.54;65.29
18755;BME280;35061;47.664;9.166;2023-05-07T10:10:22;101523.18;;;20.56;65.12
18755;BME280;35061;47.664;9.166;2023-05-07T10:12:51;101526.91;;;20.56;64.74
18755;BME280;35061;47.664;9.166;2023-05-07T10:15:21;101526.09;;;20.56;64.47
18755;BME280;35061;47.664;9.166;2023-05-07T10:17:49;101518.41;;;20.58;63.97
18755;BME280;35061;47.664;9.166;2023-05-07T10:20:17;101514.45;;;20.56;63.92
18755;BME280;35061;47.664;9.166;2023-05-07T10:22:48;101510.95;;;20.63;63.86
18755;BME280;35061;47.664;9.166;2023-05-07T10:25:28;101510.30;;;20.70;63.40
18755;BME280;35061;47.664;9.166;2023-05-07T10:28:00;101498.81;;;20.78;63.60
18755;BME280;35061;47.664;9.166;2023-05-07T10:33:05;101493.32;;;20.94;63.54
18755;BME280;35061;47.664;9.166;2023-05-07T10:35:41;101493.48;;;21.01;63.53
18755;BME280;35061;47.664;9.166;2023-05-07T10:38:10;101496.56;;;21.09;62.95
18755;BME280;35061;47.664;9.166;2023-05-07T10:40:39;101486.95;;;21.14;63.16
18755;BME280;35061;47.664;9.166;2023-05-07T10:43:08;101482.01;;;21.09;62.80
18755;BME280;35061;47.664;9.166;2023-05-07T10:45:36;101486.23;;;21.08;62.63
18755;BME280;35061;47.664;9.166;2023-05-07T10:51:21;101489.92;;;21.09;62.30
18755;BME280;35061;47.664;9.166;2023-05-07T10:56:38;101481.42;;;21.11;61.95
18755;BME280;35061;47.664;9.166;2023-05-07T11:02:03;101471.38;;;20.92;62.12
18755;BME280;35061;47.664;9.166;2023-05-07T11:04:33;101468.11;;;20.83;62.27
18755;BME280;35061;47.664;9.166;2023-05-07T11:15:08;101468.38;;;20.60;62.17
18755;BME280;35061;47.664;9.166;2023-05-07T11:17:56;101467.36;;;20.57;62.27
18755;BME280;35061;47.664;9.166;2023-05-07T11:26:02;101458.01;;;20.45;61.53
18755;BME280;35061;47.664;9.166;2023-05-07T11:28:31;101451.63;;;20.47;62.14
18755;BME280;35061;47.664;9.166;2023-05-07T11:31:04;101454.05;;;20.43;62.37
18755;BME280;35061;47.664;9.166;2023-05-07T11:33:32;101462.03;;;20.42;62.52
18755;BME280;35061;47.664;9.166;2023-05-07T11:36:03;101468.99;;;20.33;62.73
18755;BME280;35061;47.664;9.166;2023-05-07T11:38:35;101462.84;;;20.37;62.97
18755;BME280;35061;47.664;9.166;2023-05-07T11:41:03;101460.69;;;20.43;62.76
18755;BME280;35061;47.664;9.166;2023-05-07T11:43:34;101465.23;;;20.39;62.62
18755;BME280;35061;47.664;9.166;2023-05-07T11:46:09;101457.78;;;20.43;62.60
18755;BME280;35061;47.664;9.166;2023-05-07T11:48:38;101458.46;;;20.49;62.58
18755;BME280;35061;47.664;9.166;2023-05-07T11:51:07;101454.93;;;20.57;62.36
18755;BME280;35061;47.664;9.166;2023-05-07T11:53:42;101455.09;;;20.64;62.11
18755;BME280;35061;47.664;9.166;2023-05-07T11:56:12;101458.27;;;20.67;61.89
18755;BME280;35061;47.664;9.166;2023-05-07T11:58:41;101451.63;;;20.66;61.71
18755;BME280;35061;47.664;9.166;2023-05-07T12:01:11;101450.16;;;20.59;61.76
18755;BME280;35061;47.664;9.166;2023-05-07T12:03:41;101449.93;;;20.57;61.46
18755;BME280;35061;47.664;9.166;2023-05-07T12:06:10;101455.81;;;20.52;61.39
18755;BME280;35061;47.664;9.166;2023-05-07T12:08:41;101448.42;;;20.50;61.28
18755;BME280;35061;47.664;9.166;2023-05-07T12:11:15;101456.27;;;20.56;61.55
18755;BME280;35061;47.664;9.166;2023-05-07T12:13:45;101450.06;;;20.46;61.35
18755;BME280;35061;47.664;9.166;2023-05-07T12:16:14;101453.76;;;20.46;61.30
18755;BME280;35061;47.664;9.166;2023-05-07T12:18:42;101450.62;;;20.44;61.22
18755;BME280;35061;47.664;9.166;2023-05-07T12:21:10;101447.48;;;20.42;61.12
18755;BME280;35061;47.664;9.166;2023-05-07T12:23:39;101447.94;;;20.46;60.97
18755;BME280;35061;47.664;9.166;2023-05-07T12:26:08;101447.94;;;20.46;60.61
18755;BME280;35061;47.664;9.166;2023-05-07T12:28:37;101447.38;;;20.48;60.58
18755;BME280;35061;47.664;9.166;2023-05-07T12:31:08;101444.57;;;20.42;60.41
18755;BME280;35061;47.664;9.166;2023-05-07T12:33:36;101434.49;;;20.43;60.36
18755;BME280;35061;47.664;9.166;2023-05-07T12:36:06;101430.57;;;20.41;60.26
18755;BME280;35061;47.664;9.166;2023-05-07T12:38:36;101428.45;;;20.41;60.29
18755;BME280;35061;47.664;9.166;2023-05-07T12:41:05;101432.99;;;20.56;60.53
18755;BME280;35061;47.664;9.166;2023-05-07T12:43:34;101436.30;;;20.66;60.26
18755;BME280;35061;47.664;9.166;2023-05-07T12:46:07;101437.24;;;20.74;59.95
18755;BME280;35061;47.664;9.166;2023-05-07T12:48:37;101426.84;;;20.78;59.36
18755;BME280;35061;47.664;9.166;2023-05-07T12:51:06;101425.77;;;20.82;59.52
18755;BME280;35061;47.664;9.166;2023-05-07T12:53:39;101433.45;;;20.98;59.43
18755;BME280;35061;47.664;9.166;2023-05-07T12:56:08;101413.93;;;21.12;59.14
18755;BME280;35061;47.664;9.166;2023-05-07T12:58:37;101423.25;;;21.24;59.43
18755;BME280;35061;47.664;9.166;2023-05-07T13:01:06;101414.55;;;21.38;59.28
18755;BME280;35061;47.664;9.166;2023-05-07T13:03:36;101407.16;;;21.50;58.76
18755;BME280;35061;47.664;9.166;2023-05-07T13:06:08;101408.30;;;21.60;58.55
18755;BME280;35061;47.664;9.166;2023-05-07T13:08:41;101404.09;;;21.75;58.48
18755;BME280;35061;47.664;9.166;2023-05-07T13:11:11;101408.56;;;21.89;58.17
18755;BME280;35061;47.664;9.166;2023-05-07T13:13:41;101412.23;;;22.03;58.05
18755;BME280;35061;47.664;9.166;2023-05-07T13:16:10;101401.14;;;22.15;57.95
18755;BME280;35061;47.664;9.166;2023-05-07T13:18:40;101405.16;;;22.26;58.06
18755;BME280;35061;47.664;9.166;2023-05-07T13:21:08;101409.19;;;22.36;57.93
18755;BME280;35061;47.664;9.166;2023-05-07T13:23:37;101409.05;;;22.42;56.87
18755;BME280;35061;47.664;9.166;2023-05-07T13:26:06;101410.40;;;22.41;55.88